Forrester Center, West Virginia
Current Conditions -  °F | °C
As of 3:03 AM on Monday 24 Nov 2014 (Local Time) from KMRB Reporting Station
Broken Clouds Broken Clouds  
Wind Chill: 13°   Ceiling: 8000
Heat Index: 13°   Visibility: 10mi
Dew Point: 11°   Wind: 6mph
Humidity: 87%   Direction: 140°SE
Pressure: 29.6"   Gusts: NA
Location:  39.3053°N, 77.8555°W
Report Text: KMRB 240803Z AUTO 14005KT 10SM SCT021 BKN080 13/11 A2960 RMK AO2 PRESFR T01330111 TSNO
Loading
Personal Weather Stations






























Interactive Weather Map New forecast layout! Learn more

10-Day Weather Forecast

Advertisements
Track Severe Weather on mobile